CheckWX is a tool to help pilots better visualize weather data.  It is not intended as a substitute for an official pre-flight weather briefing.

07:07:39 UTC

PAWG METAR
Wrangell Airport
Wrangell, Alaska, USA
Current

1 hour ago

PAWG 280555Z 00000KT 10SM SCT120 10/07 A3014
Observed
May-28 @ 05:55 UTC
Visibility
Flight Rules
VFR
Cloud Levels
  • Scattered at 12,000' AGL
Temperature
10°C / 50°F
Dewpoint
C / 45°F
Humidity
82%
Altimeter
30.14" Hg
Pressure
1020.62 hPa
Previous

2 hours ago

PAWG 280456Z 00000KT 10SM BKN090 OVC120 12/08 A3014 RMK AO2 SLP208 T01170078
Observed
May-28 @ 04:56 UTC
Visibility
Flight Rules
VFR
Cloud Levels
  • Broken at 9,000' AGL
  • Overcast at 12,000' AGL
Temperature
12°C / 54°F
Dewpoint
C / 46°F
Humidity
77%
Altimeter
30.14" Hg
Pressure
1020.62 hPa
Previous

3 hours ago

PAWG 280355Z 00000KT 10SM BKN090 OCV120 12/07 A3015
Observed
May-28 @ 03:55 UTC
Visibility
Flight Rules
VFR
Cloud Levels
  • Broken at 9,000' AGL
Temperature
12°C / 54°F
Dewpoint
C / 45°F
Humidity
72%
Altimeter
30.15" Hg
Pressure
1021.02 hPa